Time;durP1;ratioP1;P1;durP2;ratioP2;P2;SDS_P1;SDS_P2;PMS_P1;PMS_P2;Temp;Humidity;BMP_temperature;BMP_pressure;BME280_temperature;BME280_humidity;BME280_pressure;Samples;Min_cycle;Max_cycle;Signal;HPM_P1;HPM_P2
2022/05/03 00:00:07;;;;;;;4.80;2.40;;;16.20;66.10;;;;;;5097991;27;20777;-79
2022/05/03 00:02:44;;;;;;;4.77;2.87;;;16.20;66.10;;;;;;5098183;27;20195;-79
2022/05/03 00:05:22;;;;;;;6.70;2.93;;;16.20;66.30;;;;;;5101239;28;20181;-79
2022/05/03 00:07:56;;;;;;;4.37;2.50;;;16.10;66.40;;;;;;5093704;28;20245;-79
2022/05/03 00:10:36;;;;;;;4.23;2.70;;;16.10;66.60;;;;;;5094372;28;20184;-79
2022/05/03 00:13:09;;;;;;;5.17;2.83;;;16.10;66.70;;;;;;5093086;28;20235;-79
2022/05/03 00:15:41;;;;;;;5.03;2.83;;;16.10;66.70;;;;;;5089878;28;20186;-79
2022/05/03 00:18:10;;;;;;;5.67;2.70;;;16.10;66.90;;;;;;5104153;28;20758;-79
2022/05/03 00:20:38;;;;;;;3.87;2.40;;;16.00;66.70;;;;;;5093038;27;20594;-79
2022/05/03 00:23:08;;;;;;;4.97;2.93;;;16.00;66.90;;;;;;5104786;28;20200;-78
2022/05/03 00:25:38;;;;;;;6.40;2.73;;;16.00;67.10;;;;;;5089476;27;20189;-78
2022/05/03 00:28:08;;;;;;;6.40;3.37;;;15.90;67.30;;;;;;5089339;27;20198;-77
2022/05/03 00:30:37;;;;;;;8.57;3.77;;;15.90;67.60;;;;;;5086724;28;20680;-79
2022/05/03 00:33:07;;;;;;;5.80;3.30;;;15.90;67.60;;;;;;5099699;28;20847;-77
2022/05/03 00:35:35;;;;;;;9.63;3.43;;;15.90;67.90;;;;;;5096089;27;20211;-78
2022/05/03 00:38:04;;;;;;;7.80;3.53;;;15.90;68.20;;;;;;5095956;28;20200;-78
2022/05/03 00:40:34;;;;;;;7.73;3.83;;;15.80;68.40;;;;;;5092424;28;20198;-78
2022/05/03 00:43:12;;;;;;;8.13;3.83;;;15.80;68.90;;;;;;5105281;27;20196;-78
2022/05/03 00:45:43;;;;;;;6.00;3.50;;;15.70;69.20;;;;;;5094179;27;20189;-79
2022/05/03 00:48:27;;;;;;;10.10;3.97;;;15.70;69.70;;;;;;5095479;27;20646;-79
2022/05/03 00:51:04;;;;;;;6.47;3.53;;;15.70;70.70;;;;;;5096265;27;20181;-79
2022/05/03 00:53:34;;;;;;;6.70;3.80;;;15.60;71.10;;;;;;5093875;28;20193;-79
2022/05/03 00:56:19;;;;;;;7.87;4.00;;;15.60;70.50;;;;;;5085573;27;20194;-79
2022/05/03 00:58:58;;;;;;;10.47;4.27;;;15.50;70.40;;;;;;5092204;27;20745;-78
2022/05/03 01:01:33;;;;;;;8.47;4.07;;;15.50;70.70;;;;;;5096262;28;20185;-79
2022/05/03 01:04:12;;;;;;;10.77;4.27;;;15.50;71.00;;;;;;5103995;28;20656;-79
2022/05/03 01:06:57;;;;;;;6.97;4.00;;;15.40;71.10;;;;;;5093273;28;20201;-78
2022/05/03 01:09:34;;;;;;;9.30;3.63;;;15.40;71.40;;;;;;5091949;27;20190;-79
2022/05/03 01:12:24;;;;;;;9.07;4.47;;;15.30;71.60;;;;;;5095468;28;20197;-79
2022/05/03 01:15:07;;;;;;;7.17;3.97;;;15.30;72.40;;;;;;5087434;28;20297;-78
2022/05/03 01:17:43;;;;;;;7.23;4.27;;;15.30;71.80;;;;;;5093126;27;20217;-78
2022/05/03 01:20:15;;;;;;;10.50;4.90;;;15.20;72.10;;;;;;5091408;28;20213;-78
2022/05/03 01:23:12;;;;;;;5.13;4.03;;;15.20;72.00;;;;;;5093926;27;20303;-79
2022/05/03 01:25:56;;;;;;;7.47;3.97;;;15.20;72.40;;;;;;5088492;27;20189;-78
2022/05/03 01:28:31;;;;;;;12.90;4.73;;;15.20;72.50;;;;;;5091045;28;20181;-79
2022/05/03 01:31:06;;;;;;;9.80;4.73;;;15.10;72.90;;;;;;5085882;28;20193;-80
2022/05/03 01:33:38;;;;;;;7.57;4.57;;;15.10;72.90;;;;;;5096824;28;20272;-77
2022/05/03 01:36:09;;;;;;;9.67;4.77;;;15.10;72.90;;;;;;5097855;28;20193;-77
2022/05/03 01:38:54;;;;;;;9.33;4.50;;;15.10;73.20;;;;;;5082787;27;20643;-79
2022/05/03 01:41:35;;;;;;;9.83;4.83;;;15.00;73.70;;;;;;5094949;28;20193;-79
2022/05/03 01:44:29;;;;;;;9.67;5.57;;;15.00;73.60;;;;;;5099125;28;20209;-80
2022/05/03 01:47:08;;;;;;;9.67;4.93;;;15.00;74.00;;;;;;5083519;28;20204;-79
2022/05/03 01:53:00;;;;;;;12.57;5.10;;;14.90;74.30;;;;;;5083088;28;20190;-78
2022/05/03 01:56:06;;;;;;;8.80;4.93;;;14.90;74.20;;;;;;5082829;28;20185;-79
2022/05/03 01:58:44;;;;;;;8.63;5.00;;;14.90;74.20;;;;;;5089064;28;20693;-78
2022/05/03 02:01:24;;;;;;;13.03;4.87;;;14.90;74.30;;;;;;5083443;28;20599;-79
2022/05/03 02:04:03;;;;;;;9.83;4.70;;;14.90;74.30;;;;;;5086347;28;20272;-79
2022/05/03 02:06:46;;;;;;;10.20;4.63;;;14.90;74.50;;;;;;5084522;28;20186;-80
2022/05/03 02:09:14;;;;;;;7.37;4.60;;;14.90;74.60;;;;;;5098586;28;20189;-78
2022/05/03 02:11:56;;;;;;;9.07;4.73;;;14.80;74.60;;;;;;5093648;28;20536;-80
2022/05/03 02:14:44;;;;;;;9.27;5.03;;;14.80;74.70;;;;;;5071390;28;20226;-79
2022/05/03 02:17:21;;;;;;;8.87;4.73;;;14.90;74.80;;;;;;5069892;28;20192;-79
2022/05/03 02:20:14;;;;;;;10.10;4.97;;;14.80;74.90;;;;;;5071800;28;20213;-79
2022/05/03 02:23:00;;;;;;;7.57;4.33;;;14.80;75.20;;;;;;5070335;28;20193;-80
2022/05/03 02:25:51;;;;;;;9.97;5.57;;;14.80;75.20;;;;;;5070929;28;20212;-79
2022/05/03 02:28:24;;;;;;;12.67;5.13;;;14.80;75.20;;;;;;5070709;28;20237;-78
2022/05/03 02:30:53;;;;;;;8.03;5.07;;;14.80;75.20;;;;;;5064032;28;20688;-79
2022/05/03 02:33:27;;;;;;;11.90;5.67;;;14.80;75.30;;;;;;5076192;28;20193;-79
2022/05/03 02:35:58;;;;;;;9.23;4.77;;;14.80;75.40;;;;;;5073450;28;20190;-79
2022/05/03 02:38:34;;;;;;;8.10;5.13;;;14.70;75.50;;;;;;5065625;28;20190;-78
2022/05/03 02:41:04;;;;;;;11.93;5.27;;;14.80;75.50;;;;;;5078474;28;20205;-79
2022/05/03 02:43:36;;;;;;;11.27;4.73;;;14.70;75.60;;;;;;5072439;28;20193;-79
2022/05/03 02:46:24;;;;;;;10.33;4.90;;;14.70;75.80;;;;;;5068568;28;20556;-80
2022/05/03 02:48:57;;;;;;;11.33;5.53;;;14.70;75.90;;;;;;5063607;28;20282;-79
2022/05/03 02:51:36;;;;;;;8.40;5.30;;;14.70;75.90;;;;;;5063019;28;20182;-79
2022/05/03 02:54:15;;;;;;;11.87;4.60;;;14.70;75.90;;;;;;5067397;28;20605;-80
2022/05/03 02:56:51;;;;;;;14.13;5.47;;;14.70;76.00;;;;;;5062895;28;20186;-77
2022/05/03 03:01:47;;;;;;;10.03;5.47;;;14.60;76.00;;;;;;5063960;28;20178;-78
2022/05/03 03:02:29;;;;;;;10.33;6.03;;;14.70;76.20;;;;;;5072863;28;20823;-78
2022/05/03 03:05:04;;;;;;;11.40;6.17;;;14.60;76.90;;;;;;5061017;28;20194;-78
2022/05/03 03:07:45;;;;;;;9.60;5.43;;;14.60;77.50;;;;;;5067136;28;20190;-78
2022/05/03 03:10:22;;;;;;;11.90;6.13;;;14.60;77.70;;;;;;5070531;28;20193;-77
2022/05/03 03:12:57;;;;;;;10.60;5.73;;;14.60;77.60;;;;;;5078244;28;20189;-79
2022/05/03 03:15:29;;;;;;;11.17;6.20;;;14.50;78.10;;;;;;5080707;28;20189;-79
2022/05/03 03:17:59;;;;;;;11.33;5.93;;;14.50;78.30;;;;;;5074465;28;20201;-78
2022/05/03 03:20:28;;;;;;;10.70;5.60;;;14.50;78.30;;;;;;5075704;28;20778;-78
2022/05/03 03:22:58;;;;;;;14.90;5.97;;;14.50;78.10;;;;;;5083223;28;20197;-77
2022/05/03 03:25:27;;;;;;;12.70;6.03;;;14.50;78.10;;;;;;5075526;28;20217;-79
2022/05/03 03:27:57;;;;;;;9.57;5.33;;;14.50;78.00;;;;;;5081002;28;20188;-78
2022/05/03 03:30:25;;;;;;;17.23;6.43;;;14.50;78.10;;;;;;5080545;28;20213;-79
2022/05/03 03:32:56;;;;;;;12.53;5.87;;;14.50;78.00;;;;;;5079613;28;20200;-79
2022/05/03 03:35:25;;;;;;;9.67;5.90;;;14.50;78.00;;;;;;5086917;28;20193;-78
2022/05/03 03:37:57;;;;;;;9.57;6.10;;;14.50;78.10;;;;;;5075135;28;20197;-79
2022/05/03 03:40:27;;;;;;;13.90;6.30;;;14.50;78.30;;;;;;5077210;28;20285;-79
2022/05/03 03:42:55;;;;;;;15.33;7.50;;;14.50;78.40;;;;;;5083125;28;20189;-79
2022/05/03 03:45:24;;;;;;;14.53;6.80;;;14.50;79.00;;;;;;5071940;28;20190;-79
2022/05/03 03:47:53;;;;;;;10.17;6.50;;;14.50;78.80;;;;;;5088749;28;20241;-79
2022/05/03 03:50:23;;;;;;;13.27;7.03;;;14.50;78.80;;;;;;5088414;28;20193;-79
2022/05/03 03:52:52;;;;;;;11.67;6.47;;;14.50;79.10;;;;;;5078078;28;20196;-79
2022/05/03 03:55:21;;;;;;;10.27;6.50;;;14.50;79.60;;;;;;5079111;28;20195;-78
2022/05/03 03:57:52;;;;;;;13.30;7.30;;;14.50;79.40;;;;;;5082218;28;20669;-79
2022/05/03 04:00:20;;;;;;;13.53;6.63;;;14.50;79.80;;;;;;5085244;28;20909;-79
2022/05/03 04:02:48;;;;;;;16.63;7.43;;;14.50;80.30;;;;;;5088103;28;20193;-79
2022/05/03 04:05:20;;;;;;;17.60;6.47;;;14.50;80.30;;;;;;5079451;28;20198;-79
2022/05/03 04:07:48;;;;;;;13.63;5.83;;;14.50;80.60;;;;;;5080311;28;20189;-78
2022/05/03 04:10:17;;;;;;;16.57;6.00;;;14.50;80.90;;;;;;5074502;28;20917;-78
2022/05/03 04:12:48;;;;;;;12.67;6.77;;;14.50;81.10;;;;;;5084177;28;20190;-78
2022/05/03 04:15:21;;;;;;;13.20;6.70;;;14.50;81.50;;;;;;5084257;28;20190;-78
2022/05/03 04:17:51;;;;;;;13.77;6.20;;;14.50;81.50;;;;;;5084496;28;20245;-78
2022/05/03 04:20:19;;;;;;;13.10;7.17;;;14.50;81.70;;;;;;5083593;28;20652;-78
2022/05/03 04:22:48;;;;;;;11.17;6.50;;;14.50;81.90;;;;;;5079100;28;20189;-78
2022/05/03 04:25:16;;;;;;;15.33;6.23;;;14.50;82.10;;;;;;5084123;28;20255;-78
2022/05/03 04:27:45;;;;;;;11.87;6.03;;;14.60;82.30;;;;;;5083540;28;20209;-79
2022/05/03 04:30:14;;;;;;;12.83;6.93;;;14.60;82.30;;;;;;5084834;28;20186;-78
2022/05/03 04:32:44;;;;;;;18.40;6.73;;;14.60;82.50;;;;;;5085937;28;20194;-79
2022/05/03 04:35:12;;;;;;;10.87;6.67;;;14.60;82.10;;;;;;5084150;28;20198;-79
2022/05/03 04:37:41;;;;;;;13.17;6.70;;;14.70;82.10;;;;;;5082988;28;20198;-79
2022/05/03 04:40:10;;;;;;;11.63;6.37;;;14.70;82.10;;;;;;5080605;28;20190;-79
2022/05/03 04:42:45;;;;;;;11.33;6.43;;;14.70;82.00;;;;;;5074550;28;20192;-78
2022/05/03 04:45:13;;;;;;;11.60;6.27;;;14.80;82.00;;;;;;5085202;28;20204;-78
2022/05/03 04:47:43;;;;;;;12.23;6.60;;;14.80;82.10;;;;;;5080640;28;20210;-79
2022/05/03 04:50:11;;;;;;;13.93;6.53;;;14.90;81.90;;;;;;5086355;28;20197;-79
2022/05/03 04:52:40;;;;;;;10.73;6.17;;;14.90;82.10;;;;;;5084475;28;20709;-78
2022/05/03 04:55:09;;;;;;;10.60;6.27;;;15.00;82.30;;;;;;5087069;28;20839;-78
2022/05/03 04:57:37;;;;;;;12.37;5.97;;;15.00;81.90;;;;;;5087417;28;20189;-77
2022/05/03 05:00:07;;;;;;;12.87;5.70;;;15.00;81.90;;;;;;5068780;28;20206;-78
2022/05/03 05:02:38;;;;;;;12.20;5.83;;;15.10;82.10;;;;;;5095048;28;20221;-78
2022/05/03 05:05:09;;;;;;;15.07;5.93;;;15.10;82.20;;;;;;5080963;28;20557;-78
2022/05/03 05:07:37;;;;;;;11.53;5.03;;;15.10;82.20;;;;;;5076904;28;20182;-77
2022/05/03 05:10:26;;;;;;;12.87;5.73;;;15.20;82.20;;;;;;5066208;28;20197;-78
2022/05/03 05:12:55;;;;;;;8.73;5.10;;;15.20;82.20;;;;;;5074070;28;20194;-77
2022/05/03 05:15:24;;;;;;;9.67;5.73;;;15.20;82.00;;;;;;5081024;28;20190;-79
2022/05/03 05:17:54;;;;;;;30.17;11.93;;;15.20;82.80;;;;;;5065653;28;20191;-80
2022/05/03 05:20:24;;;;;;;15.87;8.43;;;15.30;82.20;;;;;;5079580;28;20288;-80
2022/05/03 05:22:53;;;;;;;10.17;6.90;;;15.30;82.00;;;;;;5069130;28;20763;-79
2022/05/03 05:25:41;;;;;;;10.23;5.30;;;15.40;81.70;;;;;;5078994;28;20239;-78
2022/05/03 05:28:09;;;;;;;9.97;5.67;;;15.40;82.60;;;;;;5083043;28;20673;-79
2022/05/03 05:30:38;;;;;;;10.30;5.53;;;15.50;81.60;;;;;;5069577;28;20194;-79
2022/05/03 05:33:08;;;;;;;11.53;5.87;;;15.60;81.70;;;;;;5080733;28;20223;-78
2022/05/03 05:35:38;;;;;;;10.63;5.50;;;15.70;81.60;;;;;;5075686;28;20195;-79
2022/05/03 05:38:07;;;;;;;9.50;5.47;;;15.80;81.40;;;;;;5070761;28;20198;-79
2022/05/03 05:40:36;;;;;;;8.97;4.80;;;15.80;81.20;;;;;;5078967;28;20685;-78
2022/05/03 05:43:04;;;;;;;10.43;4.70;;;15.90;81.00;;;;;;5082671;28;20189;-79
2022/05/03 05:45:33;;;;;;;12.83;5.13;;;15.90;80.70;;;;;;5084468;28;20206;-78
2022/05/03 05:48:01;;;;;;;9.17;5.60;;;16.00;80.60;;;;;;5066769;28;20202;-81
2022/05/03 05:50:30;;;;;;;14.80;6.50;;;16.10;80.40;;;;;;5064124;28;20197;-79
2022/05/03 05:55:51;;;;;;;8.63;4.30;;;16.20;79.50;;;;;;5057935;28;20186;-77
2022/05/03 05:58:19;;;;;;;7.67;4.03;;;16.30;79.20;;;;;;5077565;28;20219;-79
2022/05/03 06:00:47;;;;;;;14.10;5.00;;;16.30;78.80;;;;;;5081557;28;20202;-79
2022/05/03 06:03:16;;;;;;;7.30;4.27;;;16.40;78.10;;;;;;5073076;28;20194;-77
2022/05/03 06:05:45;;;;;;;10.52;4.63;;;16.40;77.80;;;;;;5072579;28;20459;-79
2022/05/03 06:08:14;;;;;;;9.07;4.03;;;16.50;77.70;;;;;;5080194;28;20907;-76
2022/05/03 06:10:43;;;;;;;11.70;3.87;;;16.50;77.40;;;;;;5085817;28;20196;-77
2022/05/03 06:13:13;;;;;;;5.57;3.23;;;16.60;77.10;;;;;;5072404;28;20218;-77
2022/05/03 06:15:42;;;;;;;7.43;3.57;;;16.60;76.60;;;;;;5086026;28;20569;-77
2022/05/03 06:18:10;;;;;;;5.47;3.30;;;16.70;76.50;;;;;;5084386;28;20190;-75
2022/05/03 06:20:39;;;;;;;8.73;3.70;;;16.80;76.50;;;;;;5078036;28;20651;-76
2022/05/03 06:23:15;;;;;;;8.07;4.10;;;16.80;76.30;;;;;;5075314;28;20213;-79
2022/05/03 06:25:44;;;;;;;9.90;3.60;;;16.90;75.60;;;;;;5070526;28;20855;-78
2022/05/03 06:28:12;;;;;;;8.00;3.70;;;17.00;75.30;;;;;;5082150;28;20209;-79
2022/05/03 06:30:41;;;;;;;8.83;3.30;;;17.00;75.20;;;;;;5074614;28;20213;-78
2022/05/03 06:33:10;;;;;;;8.40;4.50;;;17.10;74.40;;;;;;5101953;28;20193;-79
2022/05/03 06:35:38;;;;;;;5.90;3.47;;;17.20;74.50;;;;;;5095094;28;20691;-78
2022/05/03 06:38:07;;;;;;;6.47;2.80;;;17.20;74.50;;;;;;5082736;28;20194;-79
2022/05/03 06:40:36;;;;;;;6.17;3.07;;;17.30;74.40;;;;;;5081419;28;20185;-78
2022/05/03 06:43:05;;;;;;;5.43;2.90;;;17.40;74.10;;;;;;5074459;28;20228;-79
2022/05/03 06:45:34;;;;;;;6.90;3.07;;;17.50;74.00;;;;;;5074408;28;20694;-80
2022/05/03 06:48:02;;;;;;;5.23;2.50;;;17.50;73.80;;;;;;5073662;28;20203;-80
2022/05/03 06:50:31;;;;;;;7.73;3.00;;;17.60;73.60;;;;;;5067245;28;20674;-78
2022/05/03 06:52:59;;;;;;;4.93;2.43;;;17.70;73.20;;;;;;5080902;28;20239;-79
2022/05/03 06:55:28;;;;;;;6.33;2.80;;;17.80;72.90;;;;;;5083980;28;20197;-79
2022/05/03 06:57:57;;;;;;;8.20;3.57;;;17.90;72.60;;;;;;5083111;28;20197;-78
2022/05/03 07:00:26;;;;;;;4.33;2.60;;;17.90;71.90;;;;;;5073334;28;20208;-78
2022/05/03 07:02:54;;;;;;;5.63;3.10;;;18.00;69.80;;;;;;5087232;28;20218;-80
2022/05/03 07:05:23;;;;;;;7.72;3.90;;;18.00;70.20;;;;;;5069196;28;20440;-79
2022/05/03 07:07:51;;;;;;;5.03;2.73;;;18.10;70.20;;;;;;5082652;28;20555;-77
2022/05/03 07:10:20;;;;;;;3.93;2.40;;;18.20;70.10;;;;;;5081918;28;20189;-79
2022/05/03 07:12:48;;;;;;;7.37;3.10;;;18.20;69.90;;;;;;5076947;28;20193;-79
2022/05/03 07:15:18;;;;;;;4.67;3.17;;;18.30;69.80;;;;;;5087384;28;20182;-79
2022/05/03 07:23:18;;;;;;;5.87;2.57;;;18.40;69.10;;;;;;5081069;28;20206;-79
2022/05/03 07:25:47;;;;;;;6.35;2.72;;;18.50;69.10;;;;;;5082577;28;20434;-79
2022/05/03 07:28:15;;;;;;;8.60;3.23;;;18.60;69.00;;;;;;5069917;28;20228;-79
2022/05/03 07:30:45;;;;;;;10.73;2.67;;;18.60;68.90;;;;;;5080411;28;20206;-78
2022/05/03 07:33:13;;;;;;;10.10;3.37;;;18.60;68.70;;;;;;5080449;28;20205;-79
2022/05/03 07:35:41;;;;;;;8.50;3.30;;;18.70;67.70;;;;;;5073340;28;20201;-78
2022/05/03 07:38:10;;;;;;;4.90;2.50;;;18.70;67.60;;;;;;5082559;28;20768;-78
2022/05/03 07:40:38;;;;;;;5.83;2.70;;;18.80;67.50;;;;;;5077386;28;20205;-79
2022/05/03 07:43:06;;;;;;;5.93;2.80;;;18.80;67.30;;;;;;5070596;28;20233;-79
2022/05/03 07:45:35;;;;;;;7.73;2.60;;;18.90;67.20;;;;;;5083480;28;20560;-77
2022/05/03 07:48:06;;;;;;;5.83;2.57;;;18.90;67.00;;;;;;5086355;28;20198;-78
2022/05/03 07:50:34;;;;;;;6.30;2.57;;;19.00;66.50;;;;;;5082375;28;20639;-76
2022/05/03 07:53:03;;;;;;;8.70;2.23;;;19.00;66.40;;;;;;5069669;28;20225;-75
2022/05/03 07:55:31;;;;;;;4.33;2.20;;;19.00;66.20;;;;;;5080138;28;20186;-76
2022/05/03 07:57:59;;;;;;;7.97;2.13;;;19.10;65.80;;;;;;5073068;28;20191;-78
2022/05/03 08:00:28;;;;;;;5.33;2.33;;;19.10;63.90;;;;;;5073886;28;20671;-77
2022/05/03 08:02:57;;;;;;;5.27;2.20;;;19.20;64.20;;;;;;5071778;28;20222;-78
2022/05/03 08:05:27;;;;;;;6.37;2.93;;;19.20;64.20;;;;;;5078688;28;20674;-76
2022/05/03 08:07:56;;;;;;;9.23;2.70;;;19.30;63.10;;;;;;5088210;28;20193;-78
2022/05/03 08:10:24;;;;;;;4.53;2.33;;;19.40;63.50;;;;;;5084218;28;20201;-77
2022/05/03 08:12:52;;;;;;;6.27;2.60;;;19.40;63.30;;;;;;5077382;28;20706;-77
2022/05/03 08:15:33;;;;;;;7.87;2.33;;;19.40;62.50;;;;;;5077119;28;20197;-78
2022/05/03 08:18:01;;;;;;;6.60;2.87;;;19.50;61.60;;;;;;5062943;28;20658;-79
2022/05/03 08:20:31;;;;;;;8.10;2.60;;;19.50;61.70;;;;;;5061767;28;20206;-81
2022/05/03 08:23:00;;;;;;;7.57;2.40;;;19.60;62.10;;;;;;5064682;28;20214;-78
2022/05/03 08:25:29;;;;;;;4.00;1.90;;;19.60;62.10;;;;;;5064839;28;20191;-78
2022/05/03 08:27:58;;;;;;;3.87;2.10;;;19.70;62.10;;;;;;5062782;28;20197;-77
2022/05/03 08:30:26;;;;;;;3.97;2.33;;;19.80;61.90;;;;;;5084541;28;20198;-77
2022/05/03 08:32:55;;;;;;;6.10;2.80;;;19.90;61.40;;;;;;5084870;28;20193;-78
2022/05/03 08:35:24;;;;;;;8.87;3.80;;;20.00;60.70;;;;;;5022596;28;20202;-78
2022/05/03 08:43:26;;;;;;;4.57;2.40;;;20.20;59.40;;;;;;5064183;28;20217;-78
2022/05/03 08:45:54;;;;;;;5.23;2.07;;;20.30;59.10;;;;;;5064829;28;20195;-79
2022/05/03 08:48:30;;;;;;;8.20;2.10;;;20.30;58.60;;;;;;5063431;28;20590;-79
2022/05/03 08:51:00;;;;;;;3.93;2.00;;;20.40;58.60;;;;;;5077092;28;20208;-76
2022/05/03 08:53:30;;;;;;;3.73;1.93;;;20.40;56.90;;;;;;5084885;28;20896;-79
2022/05/03 08:55:59;;;;;;;3.60;1.90;;;20.40;57.20;;;;;;5077929;28;20178;-79
2022/05/03 08:58:28;;;;;;;3.00;1.73;;;20.50;57.80;;;;;;5072022;28;20190;-79
2022/05/03 09:00:56;;;;;;;3.13;1.77;;;20.60;56.40;;;;;;5086021;28;20204;-78
2022/05/03 09:03:25;;;;;;;4.10;2.10;;;20.60;57.20;;;;;;5073641;28;20224;-78
2022/05/03 09:05:53;;;;;;;6.33;2.37;;;20.60;56.80;;;;;;5075734;28;20714;-80
2022/05/03 09:08:23;;;;;;;3.57;1.90;;;20.60;56.30;;;;;;5063589;28;20611;-78
2022/05/03 09:10:53;;;;;;;7.33;1.80;;;20.70;56.60;;;;;;5082047;28;20280;-78
2022/05/03 09:13:42;;;;;;;3.42;1.63;;;20.70;56.60;;;;;;5083203;28;20710;-78
2022/05/03 09:16:12;;;;;;;4.60;1.80;;;20.70;56.20;;;;;;5082262;28;20281;-79
2022/05/03 09:18:41;;;;;;;3.80;1.70;;;20.70;56.20;;;;;;5062525;28;20190;-79
2022/05/03 09:24:13;;;;;;;4.97;2.03;;;20.80;56.40;;;;;;5079102;28;20216;-80
2022/05/03 09:26:43;;;;;;;4.80;1.87;;;20.90;56.60;;;;;;5081405;28;20197;-77
2022/05/03 09:29:14;;;;;;;3.45;1.58;;;20.90;55.50;;;;;;5063943;28;20191;-76
2022/05/03 09:31:46;;;;;;;4.07;1.50;;;21.00;55.20;;;;;;5063380;28;20273;-77
2022/05/03 09:34:23;;;;;;;3.33;1.60;;;21.00;54.40;;;;;;5074942;28;20190;-79
2022/05/03 09:36:53;;;;;;;3.10;1.52;;;21.00;54.80;;;;;;5082720;28;20618;-80
2022/05/03 09:39:41;;;;;;;2.10;1.42;;;21.00;54.30;;;;;;5063433;28;20180;-79
2022/05/03 09:42:12;;;;;;;4.07;1.27;;;21.00;53.20;;;;;;5064442;28;20182;-78
2022/05/03 09:44:52;;;;;;;2.67;1.10;;;21.00;53.40;;;;;;5072551;28;20229;-80
2022/05/03 09:47:22;;;;;;;2.97;1.75;;;21.10;53.30;;;;;;5081580;28;20193;-78
2022/05/03 09:49:51;;;;;;;4.32;1.60;;;21.10;53.10;;;;;;5077625;28;20615;-78
2022/05/03 09:52:29;;;;;;;2.38;1.42;;;21.10;53.10;;;;;;5083590;28;20194;-78
2022/05/03 09:55:03;;;;;;;2.90;1.30;;;21.20;53.40;;;;;;5081790;28;20201;-79
2022/05/03 09:57:35;;;;;;;3.83;1.63;;;21.20;53.90;;;;;;5082852;28;20177;-77
2022/05/03 10:00:06;;;;;;;3.40;1.63;;;21.20;53.30;;;;;;5042846;28;20182;-79
2022/05/03 10:02:40;;;;;;;3.88;1.38;;;21.30;53.40;;;;;;5042939;28;20190;-79
2022/05/03 10:05:14;;;;;;;3.33;1.30;;;21.40;53.60;;;;;;5074490;28;20209;-79
2022/05/03 10:07:44;;;;;;;2.78;1.38;;;21.40;53.60;;;;;;5083312;28;20197;-78
2022/05/03 10:10:14;;;;;;;4.18;1.42;;;21.50;53.20;;;;;;5063205;28;20190;-79
2022/05/03 10:12:45;;;;;;;2.95;1.35;;;21.50;52.50;;;;;;5063531;28;20179;-79
2022/05/03 10:20:35;;;;;;;3.97;1.42;;;21.60;52.90;;;;;;5063218;28;20213;-82
2022/05/03 10:20:55;;;;;;;2.88;1.67;;;21.70;52.10;;;;;;5064637;28;20190;-80
2022/05/03 10:23:24;;;;;;;4.75;1.70;;;21.80;52.50;;;;;;5063431;28;20217;-79
2022/05/03 10:25:55;;;;;;;3.22;1.60;;;21.80;51.50;;;;;;5062879;28;20191;-77
2022/05/03 10:28:25;;;;;;;5.40;1.70;;;21.80;52.20;;;;;;5063576;28;20179;-80
2022/05/03 10:31:23;;;;;;;4.00;2.20;;;21.90;52.60;;;;;;5064540;28;20196;-80
2022/05/03 10:33:52;;;;;;;4.85;1.83;;;22.00;53.20;;;;;;5042921;28;20198;-79
2022/05/03 10:36:43;;;;;;;7.15;2.10;;;22.00;53.40;;;;;;5078606;28;20189;-78
2022/05/03 10:39:32;;;;;;;3.88;1.80;;;22.00;52.30;;;;;;5086205;28;20420;-79
2022/05/03 10:42:03;;;;;;;4.03;1.60;;;22.00;50.80;;;;;;5063610;28;20198;-79
2022/05/03 10:44:55;;;;;;;5.35;1.63;;;22.10;50.50;;;;;;5067135;28;20214;-78
2022/05/03 10:47:44;;;;;;;3.80;1.58;;;22.10;50.60;;;;;;5066972;28;20191;-79
2022/05/03 10:50:23;;;;;;;4.20;1.63;;;22.10;51.20;;;;;;5065300;28;20197;-79
2022/05/03 10:53:18;;;;;;;3.05;1.80;;;22.20;51.30;;;;;;5065065;28;20976;-80
2022/05/03 10:56:13;;;;;;;4.00;1.65;;;22.30;51.60;;;;;;5063145;28;20203;-77
2022/05/03 10:58:43;;;;;;;3.70;1.40;;;22.30;51.10;;;;;;5056262;28;20280;-79
2022/05/03 11:01:19;;;;;;;2.60;1.55;;;22.40;50.30;;;;;;5056430;28;20722;-79
2022/05/03 11:04:08;;;;;;;4.28;1.40;;;22.40;50.40;;;;;;5059936;28;20225;-80
2022/05/03 11:06:44;;;;;;;4.70;1.60;;;22.40;50.10;;;;;;5053708;28;20537;-80
2022/05/03 11:09:15;;;;;;;4.10;1.42;;;22.50;50.10;;;;;;5051495;28;20285;-81
2022/05/03 11:12:08;;;;;;;3.53;1.88;;;22.60;50.60;;;;;;5063872;28;20191;-79
2022/05/03 11:14:48;;;;;;;4.38;1.75;;;22.70;50.50;;;;;;5056134;28;20227;-82
2022/05/03 11:17:18;;;;;;;3.03;1.40;;;22.80;49.60;;;;;;5058518;28;20187;-80
2022/05/03 11:19:56;;;;;;;2.65;1.27;;;22.90;50.20;;;;;;5055008;28;20241;-80
2022/05/03 11:22:26;;;;;;;2.95;1.73;;;22.90;50.30;;;;;;5051855;28;20186;-82
2022/05/03 11:25:12;;;;;;;3.20;1.50;;;22.90;50.10;;;;;;5051258;28;20214;-80
2022/05/03 11:27:43;;;;;;;2.95;1.35;;;22.90;48.90;;;;;;5053446;28;21012;-79
2022/05/03 11:30:17;;;;;;;5.13;2.17;;;22.90;49.20;;;;;;5056222;28;20427;-80
2022/05/03 11:32:47;;;;;;;2.83;1.67;;;22.90;48.30;;;;;;5051401;28;20962;-78
2022/05/03 11:35:16;;;;;;;3.70;1.48;;;22.80;48.90;;;;;;5059441;28;20195;-80
2022/05/03 11:37:50;;;;;;;1.83;1.10;;;22.80;49.40;;;;;;5060061;28;20187;-81
2022/05/03 11:40:21;;;;;;;3.47;1.45;;;22.80;49.40;;;;;;5059166;28;20735;-81
2022/05/03 11:42:51;;;;;;;3.88;1.40;;;22.80;49.50;;;;;;5057894;28;20198;-78
2022/05/03 11:45:20;;;;;;;2.58;1.38;;;22.80;49.40;;;;;;5056697;28;20225;-81
2022/05/03 11:47:52;;;;;;;3.28;1.60;;;22.80;49.00;;;;;;5054291;28;20195;-82
2022/05/03 11:56:04;;;;;;;2.17;1.48;;;22.70;47.90;;;;;;5050819;28;20678;-81
2022/05/03 11:58:35;;;;;;;2.42;1.40;;;22.70;48.30;;;;;;5055478;28;20636;-79
2022/05/03 12:01:12;;;;;;;4.15;1.60;;;22.80;48.40;;;;;;5046532;28;20210;-78
2022/05/03 12:03:49;;;;;;;3.65;1.50;;;22.90;48.20;;;;;;5056612;28;20198;-82
2022/05/03 12:06:19;;;;;;;6.85;1.65;;;23.00;48.10;;;;;;5061355;28;20216;-79
2022/05/03 12:08:50;;;;;;;4.28;1.60;;;23.00;47.80;;;;;;5054607;28;20201;-80
2022/05/03 12:11:21;;;;;;;5.72;1.38;;;23.00;47.70;;;;;;5052950;28;20197;-80
2022/05/03 12:13:50;;;;;;;3.70;1.60;;;23.00;47.40;;;;;;5055732;28;21217;-80
2022/05/03 12:16:23;;;;;;;4.13;1.65;;;23.10;47.90;;;;;;5057040;28;20214;-81
2022/05/03 12:18:55;;;;;;;3.38;1.50;;;23.10;47.90;;;;;;5053637;28;20187;-78
2022/05/03 12:21:28;;;;;;;3.50;1.60;;;23.20;47.90;;;;;;5053067;28;20218;-80
2022/05/03 12:24:02;;;;;;;2.97;1.50;;;23.20;47.90;;;;;;5054736;28;20883;-80
2022/05/03 12:26:37;;;;;;;3.35;1.58;;;23.20;47.80;;;;;;5054156;28;20203;-85
2022/05/03 12:29:07;;;;;;;3.17;1.60;;;23.20;47.50;;;;;;5057230;28;20194;-79
2022/05/03 12:31:38;;;;;;;3.85;1.38;;;23.20;46.50;;;;;;5048845;28;21286;-80
2022/05/03 12:34:11;;;;;;;3.05;1.48;;;23.20;46.30;;;;;;5059145;28;20217;-78
2022/05/03 12:36:40;;;;;;;4.65;1.38;;;23.20;46.80;;;;;;5055047;28;20186;-79
2022/05/03 12:39:19;;;;;;;4.18;1.63;;;23.20;47.00;;;;;;5055466;28;20198;-78
2022/05/03 12:41:59;;;;;;;4.35;1.73;;;23.20;47.30;;;;;;5049268;28;21307;-80
2022/05/03 12:44:29;;;;;;;4.10;1.70;;;23.30;47.50;;;;;;5053893;28;20194;-82
2022/05/03 12:47:06;;;;;;;3.85;1.60;;;23.30;47.50;;;;;;5052805;28;20260;-82
2022/05/03 12:49:42;;;;;;;5.50;1.88;;;23.30;47.20;;;;;;5050967;28;20226;-81
2022/05/03 12:52:31;;;;;;;4.53;1.65;;;23.20;46.10;;;;;;5053639;28;20666;-82
2022/05/03 12:55:05;;;;;;;2.47;1.92;;;23.20;46.20;;;;;;5017687;28;20194;-82
2022/05/03 13:00:32;;;;;;;5.40;1.67;;;23.10;46.60;;;;;;5052130;28;20277;-80
2022/05/03 13:03:01;;;;;;;2.13;1.45;;;23.10;47.50;;;;;;5053740;28;20255;-81
2022/05/03 13:05:31;;;;;;;3.60;1.90;;;23.10;47.30;;;;;;5049198;28;20218;-81
2022/05/03 13:08:00;;;;;;;9.38;3.40;;;23.00;47.00;;;;;;5055859;28;20209;-81
2022/05/03 13:10:36;;;;;;;2.70;1.70;;;23.10;47.20;;;;;;5055630;28;20194;-81
2022/05/03 13:13:05;;;;;;;3.42;1.70;;;23.00;47.30;;;;;;5047185;28;20742;-81
2022/05/03 13:15:39;;;;;;;5.53;1.90;;;23.00;47.00;;;;;;5056293;28;20198;-80
2022/05/03 13:18:08;;;;;;;4.97;2.22;;;23.00;46.80;;;;;;5049644;28;20755;-80
2022/05/03 13:20:39;;;;;;;4.47;1.60;;;22.90;46.60;;;;;;5050588;28;20197;-80
2022/05/03 13:23:07;;;;;;;6.43;1.77;;;22.90;46.80;;;;;;5048394;28;20199;-80
2022/05/03 13:25:36;;;;;;;4.93;1.63;;;22.80;46.70;;;;;;5055115;28;20750;-80
2022/05/03 13:28:10;;;;;;;3.35;1.67;;;22.80;46.70;;;;;;5051278;28;20221;-79
2022/05/03 13:30:40;;;;;;;4.80;1.67;;;22.70;46.70;;;;;;5047037;28;20627;-82
2022/05/03 13:33:08;;;;;;;6.70;1.83;;;22.60;47.20;;;;;;5046126;28;20820;-81
2022/05/03 13:41:09;;;;;;;2.92;1.70;;;22.20;47.60;;;;;;5046586;28;20190;-81
2022/05/03 13:43:37;;;;;;;5.82;1.90;;;22.10;47.70;;;;;;5058950;28;20216;-81
2022/05/03 13:46:06;;;;;;;7.15;2.20;;;22.00;48.10;;;;;;5053420;28;20225;-77
2022/05/03 13:48:34;;;;;;;6.13;1.83;;;21.90;48.20;;;;;;5052495;28;20202;-79